Time,TemperatureF,DewpointF,PressureIn,WindDirection,WindDirectionDegrees,WindSpeedMPH,WindSpeedGustMPH,Humidity,HourlyPrecipIn,Conditions,Clouds,dailyrainin,SolarRadiationWatts/m^2,SoftwareType,DateUTC
2013-04-15 00:03:00,44.0,22.0,29.44,North,360,2.0,5.0,42,0.00,,,0.00,0,weatherlink.com 1.10,2013-04-15 06:03:00,
2013-04-15 00:18:00,44.0,23.0,29.45,North,360,0.0,4.0,44,0.00,,,0.00,0,weatherlink.com 1.10,2013-04-15 06:18:00,
2013-04-15 00:33:00,44.8,22.0,29.45,North,360,4.0,5.0,41,0.00,,,0.00,0,weatherlink.com 1.10,2013-04-15 06:33:00,
2013-04-15 00:49:00,44.9,22.0,29.45,North,360,1.0,4.0,41,0.00,,,0.00,0,weatherlink.com 1.10,2013-04-15 06:49:00,
2013-04-15 01:04:00,44.6,23.0,29.46,North,360,1.0,3.0,42,0.00,,,0.00,0,weatherlink.com 1.10,2013-04-15 07:04:00,
2013-04-15 01:49:00,42.7,22.0,29.46,North,360,1.0,3.0,44,0.00,,,0.00,0,weatherlink.com 1.10,2013-04-15 07:49:00,
2013-04-15 02:04:00,42.0,22.0,29.45,North,360,0.0,4.0,45,0.00,,,0.00,0,weatherlink.com 1.10,2013-04-15 08:04:00,
2013-04-15 02:19:00,41.9,22.0,29.45,North,360,4.0,6.0,45,0.00,,,0.00,0,weatherlink.com 1.10,2013-04-15 08:19:00,
2013-04-15 02:34:00,41.5,22.0,29.46,North,360,1.0,5.0,46,0.00,,,0.00,0,weatherlink.com 1.10,2013-04-15 08:34:00,
2013-04-15 02:49:00,41.0,22.0,29.45,North,360,2.0,4.0,47,0.00,,,0.00,0,weatherlink.com 1.10,2013-04-15 08:49:00,
2013-04-15 03:04:00,40.4,21.0,29.45,North,360,1.0,4.0,47,0.00,,,0.00,0,weatherlink.com 1.10,2013-04-15 09:04:00,
2013-04-15 03:19:00,39.9,21.0,29.45,North,360,2.0,5.0,48,0.00,,,0.00,0,weatherlink.com 1.10,2013-04-15 09:19:00,
2013-04-15 03:34:00,39.5,22.0,29.45,North,360,0.0,7.0,50,0.00,,,0.00,0,weatherlink.com 1.10,2013-04-15 09:34:00,
2013-04-15 03:49:00,38.9,22.0,29.44,North,360,2.0,4.0,50,0.00,,,0.00,0,weatherlink.com 1.10,2013-04-15 09:49:00,
2013-04-15 04:04:00,38.8,22.0,29.44,North,360,2.0,7.0,51,0.00,,,0.00,0,weatherlink.com 1.10,2013-04-15 10:04:00,
2013-04-15 04:19:00,38.6,22.0,29.44,North,360,2.0,6.0,51,0.00,,,0.00,0,weatherlink.com 1.10,2013-04-15 10:19:00,
2013-04-15 04:34:00,38.7,21.0,29.43,North,360,1.0,8.0,50,0.00,,,0.00,0,weatherlink.com 1.10,2013-04-15 10:34:00,
2013-04-15 04:49:00,38.9,22.0,29.44,North,360,0.0,8.0,50,0.00,,,0.00,0,weatherlink.com 1.10,2013-04-15 10:49:00,
2013-04-15 05:04:00,38.4,21.0,29.43,North,360,5.0,10.0,50,0.00,,,0.00,0,weatherlink.com 1.10,2013-04-15 11:04:00,
2013-04-15 05:19:00,38.1,21.0,29.43,North,360,5.0,7.0,50,0.00,,,0.00,0,weatherlink.com 1.10,2013-04-15 11:19:00,
2013-04-15 05:34:00,38.0,21.0,29.43,North,360,1.0,7.0,50,0.00,,,0.00,0,weatherlink.com 1.10,2013-04-15 11:34:00,
2013-04-15 05:49:00,37.8,21.0,29.44,North,360,1.0,7.0,51,0.00,,,0.00,0,weatherlink.com 1.10,2013-04-15 11:49:00,
2013-04-15 06:04:00,37.5,21.0,29.43,North,360,1.0,5.0,51,0.00,,,0.00,0,weatherlink.com 1.10,2013-04-15 12:04:00,
2013-04-15 06:19:00,37.3,21.0,29.43,North,360,2.0,9.0,51,0.00,,,0.00,0,weatherlink.com 1.10,2013-04-15 12:19:00,
2013-04-15 06:49:00,37.0,20.0,29.44,North,360,2.0,8.0,50,0.00,,,0.00,11,weatherlink.com 1.10,2013-04-15 12:49:00,
2013-04-15 07:04:00,37.1,20.0,29.43,North,360,2.0,6.0,50,0.00,,,0.00,12,weatherlink.com 1.10,2013-04-15 13:04:00,
2013-04-15 07:19:00,37.1,20.0,29.43,North,360,1.0,7.0,51,0.00,,,0.00,14,weatherlink.com 1.10,2013-04-15 13:19:00,
2013-04-15 07:34:00,37.4,20.0,29.43,North,360,5.0,7.0,50,0.00,,,0.00,25,weatherlink.com 1.10,2013-04-15 13:34:00,
2013-04-15 07:49:00,38.5,20.0,29.43,North,360,3.0,13.0,48,0.00,,,0.00,26,weatherlink.com 1.10,2013-04-15 13:49:00,
2013-04-15 08:05:00,39.4,20.0,29.42,North,360,6.0,9.0,46,0.00,,,0.00,32,weatherlink.com 1.10,2013-04-15 14:05:00,
2013-04-15 08:20:00,40.3,20.0,29.43,North,360,6.0,8.0,45,0.00,,,0.00,90,weatherlink.com 1.10,2013-04-15 14:20:00,
2013-04-15 08:35:00,41.2,20.0,29.43,North,360,6.0,17.0,43,0.00,,,0.00,350,weatherlink.com 1.10,2013-04-15 14:35:00,
2013-04-15 08:50:00,41.6,20.0,29.43,North,360,7.0,13.0,43,0.00,,,0.00,350,weatherlink.com 1.10,2013-04-15 14:50:00,
2013-04-15 09:05:00,42.7,21.0,29.43,West,263,4.0,11.0,42,0.00,,,0.00,478,weatherlink.com 1.10,2013-04-15 15:05:00,
2013-04-15 09:20:00,43.0,21.0,29.43,WSW,246,5.0,23.0,41,0.00,,,0.00,420,weatherlink.com 1.10,2013-04-15 15:20:00,
2013-04-15 09:35:00,43.5,20.0,29.42,North,360,2.0,17.0,40,0.00,,,0.00,547,weatherlink.com 1.10,2013-04-15 15:35:00,
2013-04-15 09:50:00,44.4,21.0,29.43,WSW,248,3.0,11.0,39,0.00,,,0.00,628,weatherlink.com 1.10,2013-04-15 15:50:00,
2013-04-15 10:05:00,45.4,22.0,29.43,West,266,6.0,14.0,40,0.00,,,0.00,694,weatherlink.com 1.10,2013-04-15 16:05:00,
2013-04-15 10:20:00,45.2,21.0,29.43,WSW,255,2.0,11.0,39,0.00,,,0.00,721,weatherlink.com 1.10,2013-04-15 16:20:00,
2013-04-15 10:35:00,46.1,21.0,29.43,WSW,246,2.0,15.0,37,0.00,,,0.00,759,weatherlink.com 1.10,2013-04-15 16:35:00,
2013-04-15 10:50:00,46.7,21.0,29.44,WSW,238,5.0,16.0,36,0.00,,,0.00,800,weatherlink.com 1.10,2013-04-15 16:50:00,
2013-04-15 11:05:00,47.9,22.0,29.43,WSW,253,4.0,8.0,36,0.00,,,0.00,835,weatherlink.com 1.10,2013-04-15 17:05:00,
2013-04-15 11:35:00,49.3,21.0,29.43,WSW,238,4.0,11.0,33,0.00,,,0.00,893,weatherlink.com 1.10,2013-04-15 17:35:00,
2013-04-15 11:50:00,51.4,22.0,29.43,SW,236,5.0,17.0,31,0.00,,,0.00,916,weatherlink.com 1.10,2013-04-15 17:50:00,
2013-04-15 12:05:00,51.7,22.0,29.41,NW,304,7.0,10.0,31,0.00,,,0.00,939,weatherlink.com 1.10,2013-04-15 18:05:00,
2013-04-15 12:20:00,52.6,23.0,29.42,West,273,3.0,16.0,31,0.00,,,0.00,954,weatherlink.com 1.10,2013-04-15 18:20:00,
2013-04-15 12:35:00,54.4,22.0,29.41,WSW,253,6.0,9.0,28,0.00,,,0.00,972,weatherlink.com 1.10,2013-04-15 18:35:00,
2013-04-15 12:50:00,54.4,23.0,29.41,North,360,3.0,9.0,30,0.00,,,0.00,977,weatherlink.com 1.10,2013-04-15 18:50:00,
2013-04-15 13:06:00,56.0,22.0,29.41,North,360,4.0,9.0,27,0.00,,,0.00,990,weatherlink.com 1.10,2013-04-15 19:06:00,
2013-04-15 13:21:00,55.8,24.0,29.40,North,360,4.0,11.0,29,0.00,,,0.00,984,weatherlink.com 1.10,2013-04-15 19:21:00,
2013-04-15 13:36:00,55.8,23.0,29.39,North,360,10.0,10.0,28,0.00,,,0.00,979,weatherlink.com 1.10,2013-04-15 19:36:00,
2013-04-15 14:06:00,57.5,23.0,29.39,North,360,5.0,11.0,26,0.00,,,0.00,965,weatherlink.com 1.10,2013-04-15 20:06:00,
2013-04-15 14:21:00,56.3,21.0,29.39,North,360,3.0,10.0,25,0.00,,,0.00,949,weatherlink.com 1.10,2013-04-15 20:21:00,
2013-04-15 14:51:00,57.8,21.0,29.39,North,360,3.0,12.0,24,0.00,,,0.00,907,weatherlink.com 1.10,2013-04-15 20:51:00,
2013-04-15 15:06:00,57.0,20.0,29.39,North,360,2.0,11.0,24,0.00,,,0.00,877,weatherlink.com 1.10,2013-04-15 21:06:00,
2013-04-15 16:06:00,58.9,20.0,29.37,North,360,2.0,10.0,22,0.00,,,0.00,737,weatherlink.com 1.10,2013-04-15 22:06:00,
2013-04-15 16:21:00,59.1,19.0,29.37,North,360,5.0,9.0,21,0.00,,,0.00,698,weatherlink.com 1.10,2013-04-15 22:21:00,
2013-04-15 16:36:00,58.3,17.0,29.37,NW,312,4.0,10.0,20,0.00,,,0.00,645,weatherlink.com 1.10,2013-04-15 22:36:00,
2013-04-15 17:06:00,57.5,18.0,29.37,North,360,3.0,11.0,21,0.00,,,0.00,550,weatherlink.com 1.10,2013-04-15 23:06:00,
2013-04-15 17:21:00,58.0,17.0,29.37,North,360,2.0,12.0,20,0.00,,,0.00,497,weatherlink.com 1.10,2013-04-15 23:21:00,
2013-04-15 17:36:00,58.1,17.0,29.38,West,269,4.0,9.0,20,0.00,,,0.00,443,weatherlink.com 1.10,2013-04-15 23:36:00,
2013-04-15 17:51:00,57.3,16.0,29.38,WSW,252,6.0,11.0,20,0.00,,,0.00,390,weatherlink.com 1.10,2013-04-15 23:51:00,
2013-04-15 18:06:00,57.5,17.0,29.37,WSW,240,2.0,8.0,20,0.00,,,0.00,334,weatherlink.com 1.10,2013-04-16 00:06:00,
2013-04-15 18:21:00,58.0,18.0,29.38,NW,305,5.0,6.0,21,0.00,,,0.00,281,weatherlink.com 1.10,2013-04-16 00:21:00,
2013-04-15 18:36:00,56.7,13.0,29.39,North,360,3.0,16.0,18,0.00,,,0.00,192,weatherlink.com 1.10,2013-04-16 00:36:00,
2013-04-15 18:51:00,55.3,13.0,29.40,North,360,3.0,12.0,19,0.00,,,0.00,39,weatherlink.com 1.10,2013-04-16 00:51:00,
2013-04-15 19:06:00,54.0,15.0,29.41,North,360,2.0,11.0,21,0.00,,,0.00,28,weatherlink.com 1.10,2013-04-16 01:06:00,
2013-04-15 19:21:00,52.5,16.0,29.42,North,360,4.0,10.0,24,0.00,,,0.00,14,weatherlink.com 1.10,2013-04-16 01:21:00,
2013-04-15 19:36:00,51.2,16.0,29.42,West,268,1.0,7.0,25,0.00,,,0.00,0,weatherlink.com 1.10,2013-04-16 01:36:00,
2013-04-15 19:51:00,50.1,17.0,29.43,North,360,3.0,6.0,27,0.00,,,0.00,0,weatherlink.com 1.10,2013-04-16 01:51:00,
2013-04-15 20:06:00,49.6,18.0,29.43,North,360,4.0,7.0,28,0.00,,,0.00,0,weatherlink.com 1.10,2013-04-16 02:06:00,
2013-04-15 20:21:00,48.6,17.0,29.44,North,360,1.0,5.0,29,0.00,,,0.00,0,weatherlink.com 1.10,2013-04-16 02:21:00,
2013-04-15 20:51:00,48.4,18.0,29.44,North,360,0.0,6.0,30,0.00,,,0.00,0,weatherlink.com 1.10,2013-04-16 02:51:00,
2013-04-15 21:06:00,48.0,18.0,29.45,North,360,2.0,7.0,30,0.00,,,0.00,0,weatherlink.com 1.10,2013-04-16 03:06:00,
2013-04-15 21:21:00,47.5,17.0,29.46,North,360,1.0,6.0,30,0.00,,,0.00,0,weatherlink.com 1.10,2013-04-16 03:21:00,
2013-04-15 21:51:00,46.7,17.0,29.47,North,360,2.0,5.0,31,0.00,,,0.00,0,weatherlink.com 1.10,2013-04-16 03:51:00,
2013-04-15 22:06:00,46.5,17.0,29.47,North,360,0.0,5.0,31,0.00,,,0.00,0,weatherlink.com 1.10,2013-04-16 04:06:00,
2013-04-15 22:21:00,45.5,17.0,29.48,North,360,1.0,5.0,32,0.00,,,0.00,0,weatherlink.com 1.10,2013-04-16 04:21:00,
2013-04-15 22:36:00,44.1,17.0,29.48,North,360,1.0,7.0,33,0.00,,,0.00,0,weatherlink.com 1.10,2013-04-16 04:36:00,
2013-04-15 22:51:00,44.7,17.0,29.48,North,360,0.0,4.0,33,0.00,,,0.00,0,weatherlink.com 1.10,2013-04-16 04:51:00,
2013-04-15 23:06:00,43.7,17.0,29.48,North,360,2.0,2.0,34,0.00,,,0.00,0,weatherlink.com 1.10,2013-04-16 05:06:00,
2013-04-15 23:21:00,43.4,16.0,29.49,North,360,1.0,4.0,33,0.00,,,0.00,0,weatherlink.com 1.10,2013-04-16 05:21:00,
2013-04-15 23:36:00,44.1,16.0,29.50,North,360,3.0,6.0,32,0.00,,,0.00,0,weatherlink.com 1.10,2013-04-16 05:36:00,
2013-04-15 23:51:00,44.7,15.0,29.50,North,360,1.0,6.0,30,0.00,,,0.00,0,weatherlink.com 1.10,2013-04-16 05:51:00,